sensor_id;sensor_type;location;lat;lon;timestamp;pressure;altitude;pressure_sealevel;temperature;humidity
48200;BME280;33990;44.602;10.976;2022-09-09T00:00:12;100646.53;;;26.36;60.66
48200;BME280;33990;44.602;10.976;2022-09-09T00:02:44;100635.50;;;26.38;60.53
48200;BME280;33990;44.602;10.976;2022-09-09T00:05:34;100646.34;;;26.38;60.69
48200;BME280;33990;44.602;10.976;2022-09-09T00:08:03;100641.94;;;26.37;60.71
48200;BME280;33990;44.602;10.976;2022-09-09T00:10:37;100637.38;;;26.37;60.44
48200;BME280;33990;44.602;10.976;2022-09-09T00:13:20;100634.81;;;26.36;60.59
48200;BME280;33990;44.602;10.976;2022-09-09T00:19:24;100640.94;;;26.38;60.60
48200;BME280;33990;44.602;10.976;2022-09-09T00:24:39;100630.06;;;26.38;60.47
48200;BME280;33990;44.602;10.976;2022-09-09T00:29:58;100640.94;;;26.38;60.69
48200;BME280;33990;44.602;10.976;2022-09-09T00:32:29;100632.78;;;26.38;60.12
48200;BME280;33990;44.602;10.976;2022-09-09T00:35:44;100639.22;;;26.37;60.46
48200;BME280;33990;44.602;10.976;2022-09-09T00:37:57;100636.50;;;26.37;60.46
48200;BME280;33990;44.602;10.976;2022-09-09T00:40:35;100632.94;;;26.36;60.29
48200;BME280;33990;44.602;10.976;2022-09-09T00:43:32;100636.50;;;26.37;60.21
48200;BME280;33990;44.602;10.976;2022-09-09T00:54:34;100623.81;;;26.37;60.11
48200;BME280;33990;44.602;10.976;2022-09-09T00:59:57;100622.09;;;26.36;59.97
48200;BME280;33990;44.602;10.976;2022-09-09T01:05:33;100626.69;;;26.36;60.20
48200;BME280;33990;44.602;10.976;2022-09-09T01:08:11;100633.78;;;26.37;60.04
48200;BME280;33990;44.602;10.976;2022-09-09T01:10:51;100626.69;;;26.36;60.03
48200;BME280;33990;44.602;10.976;2022-09-09T01:13:29;100627.50;;;26.36;60.13
48200;BME280;33990;44.602;10.976;2022-09-09T01:16:03;100630.22;;;26.36;60.01
48200;BME280;33990;44.602;10.976;2022-09-09T01:18:38;100632.94;;;26.36;60.12
48200;BME280;33990;44.602;10.976;2022-09-09T01:29:08;100620.41;;;26.35;59.95
48200;BME280;33990;44.602;10.976;2022-09-09T01:31:40;100617.69;;;26.35;60.05
48200;BME280;33990;44.602;10.976;2022-09-09T01:34:13;100619.56;;;26.35;59.81
48200;BME280;33990;44.602;10.976;2022-09-09T01:36:57;100611.44;;;26.35;59.53
48200;BME280;33990;44.602;10.976;2022-09-09T01:39:28;100612.28;;;26.35;59.57
48200;BME280;33990;44.602;10.976;2022-09-09T01:42:05;100611.44;;;26.35;59.39
48200;BME280;33990;44.602;10.976;2022-09-09T01:44:34;100608.72;;;26.35;59.37
48200;BME280;33990;44.602;10.976;2022-09-09T01:47:04;100606.19;;;26.33;59.43
48200;BME280;33990;44.602;10.976;2022-09-09T01:49:33;100607.88;;;26.34;59.43
48200;BME280;33990;44.602;10.976;2022-09-09T01:52:07;100612.47;;;26.34;59.73
48200;BME280;33990;44.602;10.976;2022-09-09T01:54:37;100610.59;;;26.34;59.70
48200;BME280;33990;44.602;10.976;2022-09-09T01:57:27;100607.03;;;26.34;59.16
48200;BME280;33990;44.602;10.976;2022-09-09T02:00:04;100612.47;;;26.34;58.95
48200;BME280;33990;44.602;10.976;2022-09-09T02:05:36;100622.47;;;26.33;58.87
48200;BME280;33990;44.602;10.976;2022-09-09T02:08:15;100619.94;;;26.32;59.01
48200;BME280;33990;44.602;10.976;2022-09-09T02:11:14;100624.31;;;26.33;58.93
48200;BME280;33990;44.602;10.976;2022-09-09T02:14:01;100624.88;;;26.28;58.62
48200;BME280;33990;44.602;10.976;2022-09-09T02:16:44;100616.09;;;26.26;58.28
48200;BME280;33990;44.602;10.976;2022-09-09T02:19:19;100614.56;;;26.24;58.18
48200;BME280;33990;44.602;10.976;2022-09-09T02:22:17;100613.25;;;26.20;58.06
48200;BME280;33990;44.602;10.976;2022-09-09T02:24:47;100620.56;;;26.19;58.18
48200;BME280;33990;44.602;10.976;2022-09-09T02:27:21;100623.47;;;26.18;58.21
48200;BME280;33990;44.602;10.976;2022-09-09T02:29:51;100616.16;;;26.18;58.09
48200;BME280;33990;44.602;10.976;2022-09-09T02:32:34;100611.75;;;26.17;58.13
48200;BME280;33990;44.602;10.976;2022-09-09T02:35:11;100614.63;;;26.16;58.04
48200;BME280;33990;44.602;10.976;2022-09-09T02:37:44;100606.69;;;26.14;58.06
48200;BME280;33990;44.602;10.976;2022-09-09T02:40:16;100602.09;;;26.14;58.25
48200;BME280;33990;44.602;10.976;2022-09-09T02:42:49;100604.81;;;26.14;58.14
48200;BME280;33990;44.602;10.976;2022-09-09T02:45:21;100603.97;;;26.14;58.07
48200;BME280;33990;44.602;10.976;2022-09-09T02:50:46;100598.91;;;26.11;57.61
48200;BME280;33990;44.602;10.976;2022-09-09T02:53:21;100601.63;;;26.11;57.59
48200;BME280;33990;44.602;10.976;2022-09-09T02:55:55;100603.50;;;26.10;57.64
48200;BME280;33990;44.602;10.976;2022-09-09T02:58:25;100601.81;;;26.09;57.64
48200;BME280;33990;44.602;10.976;2022-09-09T03:00:58;100605.53;;;26.08;57.55
48200;BME280;33990;44.602;10.976;2022-09-09T03:03:26;100597.59;;;26.07;57.65
48200;BME280;33990;44.602;10.976;2022-09-09T03:05:55;100594.88;;;26.07;57.63
48200;BME280;33990;44.602;10.976;2022-09-09T03:08:26;100597.78;;;26.05;57.57
48200;BME280;33990;44.602;10.976;2022-09-09T03:10:55;100596.06;;;26.04;57.41
48200;BME280;33990;44.602;10.976;2022-09-09T03:13:27;100602.53;;;26.03;57.48
48200;BME280;33990;44.602;10.976;2022-09-09T03:15:55;100600.84;;;26.02;57.31
48200;BME280;33990;44.602;10.976;2022-09-09T03:18:22;100592.22;;;25.99;57.07
48200;BME280;33990;44.602;10.976;2022-09-09T03:20:52;100595.13;;;25.97;57.21
48200;BME280;33990;44.602;10.976;2022-09-09T03:23:21;100582.56;;;25.96;57.12
48200;BME280;33990;44.602;10.976;2022-09-09T03:25:49;100590.06;;;25.94;56.71
48200;BME280;33990;44.602;10.976;2022-09-09T03:28:24;100594.66;;;25.94;57.02
48200;BME280;33990;44.602;10.976;2022-09-09T03:31:01;100598.56;;;25.91;57.04
48200;BME280;33990;44.602;10.976;2022-09-09T03:33:33;100588.53;;;25.92;57.02
48200;BME280;33990;44.602;10.976;2022-09-09T03:36:01;100595.84;;;25.91;57.13
48200;BME280;33990;44.602;10.976;2022-09-09T03:38:29;100592.09;;;25.92;57.29
48200;BME280;33990;44.602;10.976;2022-09-09T03:40:58;100592.09;;;25.92;56.93
48200;BME280;33990;44.602;10.976;2022-09-09T03:43:26;100594.16;;;25.90;56.88
48200;BME280;33990;44.602;10.976;2022-09-09T03:45:54;100595.19;;;25.89;56.71
48200;BME280;33990;44.602;10.976;2022-09-09T03:48:27;100597.91;;;25.89;56.74
48200;BME280;33990;44.602;10.976;2022-09-09T03:50:56;100603.34;;;25.89;56.42
48200;BME280;33990;44.602;10.976;2022-09-09T03:53:25;100594.31;;;25.88;56.07
48200;BME280;33990;44.602;10.976;2022-09-09T03:55:55;100593.00;;;25.84;55.53
48200;BME280;33990;44.602;10.976;2022-09-09T03:58:26;100598.63;;;25.83;55.69
48200;BME280;33990;44.602;10.976;2022-09-09T04:01:00;100592.16;;;25.84;55.67
48200;BME280;33990;44.602;10.976;2022-09-09T04:03:29;100597.59;;;25.84;55.45
48200;BME280;33990;44.602;10.976;2022-09-09T04:05:59;100598.63;;;25.83;55.42
48200;BME280;33990;44.602;10.976;2022-09-09T04:08:29;100589.63;;;25.82;55.15
48200;BME280;33990;44.602;10.976;2022-09-09T04:11:01;100588.81;;;25.82;55.43
48200;BME280;33990;44.602;10.976;2022-09-09T04:13:35;100592.53;;;25.81;55.24
48200;BME280;33990;44.602;10.976;2022-09-09T04:16:03;100588.97;;;25.80;55.29
48200;BME280;33990;44.602;10.976;2022-09-09T04:18:33;100581.84;;;25.79;55.38
48200;BME280;33990;44.602;10.976;2022-09-09T04:21:02;100579.00;;;25.81;55.21
48200;BME280;33990;44.602;10.976;2022-09-09T04:23:33;100581.69;;;25.81;55.18
48200;BME280;33990;44.602;10.976;2022-09-09T04:26:02;100571.84;;;25.80;55.00
48200;BME280;33990;44.602;10.976;2022-09-09T04:28:34;100581.84;;;25.79;54.88
48200;BME280;33990;44.602;10.976;2022-09-09T04:31:08;100574.56;;;25.80;54.91
48200;BME280;33990;44.602;10.976;2022-09-09T04:33:38;100569.34;;;25.78;54.65
48200;BME280;33990;44.602;10.976;2022-09-09T04:36:08;100573.91;;;25.78;54.40
48200;BME280;33990;44.602;10.976;2022-09-09T04:38:35;100573.22;;;25.76;54.49
48200;BME280;33990;44.602;10.976;2022-09-09T04:41:04;100569.84;;;25.74;54.55
48200;BME280;33990;44.602;10.976;2022-09-09T04:43:33;100572.56;;;25.74;54.45
48200;BME280;33990;44.602;10.976;2022-09-09T04:46:03;100567.97;;;25.74;54.42
48200;BME280;33990;44.602;10.976;2022-09-09T04:48:31;100556.66;;;25.71;54.24
48200;BME280;33990;44.602;10.976;2022-09-09T04:51:02;100565.81;;;25.70;54.35
48200;BME280;33990;44.602;10.976;2022-09-09T04:53:33;100570.19;;;25.71;54.43
48200;BME280;33990;44.602;10.976;2022-09-09T04:56:10;100567.50;;;25.71;54.12
48200;BME280;33990;44.602;10.976;2022-09-09T04:58:42;100574.09;;;25.68;54.06
48200;BME280;33990;44.602;10.976;2022-09-09T05:01:15;100582.25;;;25.68;53.84
48200;BME280;33990;44.602;10.976;2022-09-09T05:03:46;100578.69;;;25.68;53.69
48200;BME280;33990;44.602;10.976;2022-09-09T05:06:19;100575.31;;;25.65;53.71
48200;BME280;33990;44.602;10.976;2022-09-09T05:08:48;100577.19;;;25.65;53.53
48200;BME280;33990;44.602;10.976;2022-09-09T05:11:25;100579.06;;;25.64;53.26
48200;BME280;33990;44.602;10.976;2022-09-09T05:13:58;100580.06;;;25.63;53.19
48200;BME280;33990;44.602;10.976;2022-09-09T05:16:28;100580.91;;;25.64;53.09
48200;BME280;33990;44.602;10.976;2022-09-09T05:18:56;100584.66;;;25.63;53.01
48200;BME280;33990;44.602;10.976;2022-09-09T05:21:25;100577.56;;;25.62;53.04
48200;BME280;33990;44.602;10.976;2022-09-09T05:23:54;100583.81;;;25.62;52.81
48200;BME280;33990;44.602;10.976;2022-09-09T05:26:22;100589.22;;;25.62;52.91
48200;BME280;33990;44.602;10.976;2022-09-09T05:28:52;100586.72;;;25.61;52.67
48200;BME280;33990;44.602;10.976;2022-09-09T05:31:19;100596.72;;;25.60;52.84
48200;BME280;33990;44.602;10.976;2022-09-09T05:33:50;100596.03;;;25.58;52.88
48200;BME280;33990;44.602;10.976;2022-09-09T05:36:19;100597.06;;;25.57;52.65
48200;BME280;33990;44.602;10.976;2022-09-09T05:38:51;100607.06;;;25.57;52.78
48200;BME280;33990;44.602;10.976;2022-09-09T05:41:21;100600.13;;;25.54;52.75
48200;BME280;33990;44.602;10.976;2022-09-09T05:43:52;100609.28;;;25.53;52.78
48200;BME280;33990;44.602;10.976;2022-09-09T05:46:22;100614.03;;;25.51;52.91
48200;BME280;33990;44.602;10.976;2022-09-09T05:48:53;100599.63;;;25.51;52.81
48200;BME280;33990;44.602;10.976;2022-09-09T05:51:28;100603.88;;;25.53;53.09
48200;BME280;33990;44.602;10.976;2022-09-09T05:53:59;100607.59;;;25.52;52.79
48200;BME280;33990;44.602;10.976;2022-09-09T05:56:30;100612.34;;;25.50;53.23
48200;BME280;33990;44.602;10.976;2022-09-09T05:58:58;100614.88;;;25.52;53.37
48200;BME280;33990;44.602;10.976;2022-09-09T06:01:32;100611.31;;;25.51;53.26
48200;BME280;33990;44.602;10.976;2022-09-09T06:04:02;100616.75;;;25.51;53.32
48200;BME280;33990;44.602;10.976;2022-09-09T06:06:33;100615.75;;;25.52;53.81
48200;BME280;33990;44.602;10.976;2022-09-09T06:09:09;100621.81;;;25.54;53.70
48200;BME280;33990;44.602;10.976;2022-09-09T06:11:40;100623.50;;;25.55;53.54
48200;BME280;33990;44.602;10.976;2022-09-09T06:14:08;100618.06;;;25.55;53.26
48200;BME280;33990;44.602;10.976;2022-09-09T06:16:37;100608.94;;;25.56;53.62
48200;BME280;33990;44.602;10.976;2022-09-09T06:19:22;100615.84;;;25.59;53.89
48200;BME280;33990;44.602;10.976;2022-09-09T06:21:55;100602.97;;;25.61;53.64
48200;BME280;33990;44.602;10.976;2022-09-09T06:24:23;100610.91;;;25.62;53.54
48200;BME280;33990;44.602;10.976;2022-09-09T06:26:50;100608.69;;;25.66;53.99
48200;BME280;33990;44.602;10.976;2022-09-09T06:29:25;100607.50;;;25.69;53.95
48200;BME280;33990;44.602;10.976;2022-09-09T06:31:53;100603.75;;;25.70;53.67
48200;BME280;33990;44.602;10.976;2022-09-09T06:34:22;100609.69;;;25.73;53.38
48200;BME280;33990;44.602;10.976;2022-09-09T06:36:54;100601.34;;;25.75;52.74
48200;BME280;33990;44.602;10.976;2022-09-09T06:39:22;100594.91;;;25.76;53.06
48200;BME280;33990;44.602;10.976;2022-09-09T06:41:49;100593.91;;;25.77;53.14
48200;BME280;33990;44.602;10.976;2022-09-09T06:44:48;100595.63;;;25.78;53.54
48200;BME280;33990;44.602;10.976;2022-09-09T06:47:28;100598.34;;;25.70;52.23
48200;BME280;33990;44.602;10.976;2022-09-09T06:49:57;100593.88;;;25.54;52.23
48200;BME280;33990;44.602;10.976;2022-09-09T06:52:25;100587.81;;;25.44;52.04
48200;BME280;33990;44.602;10.976;2022-09-09T06:54:54;100594.31;;;25.34;51.05
48200;BME280;33990;44.602;10.976;2022-09-09T06:57:22;100587.06;;;25.27;50.57
48200;BME280;33990;44.602;10.976;2022-09-09T07:00:04;100594.38;;;25.18;51.01
48200;BME280;33990;44.602;10.976;2022-09-09T07:02:32;100595.56;;;25.15;51.44
48200;BME280;33990;44.602;10.976;2022-09-09T07:05:06;100589.31;;;25.15;51.77
48200;BME280;33990;44.602;10.976;2022-09-09T07:07:35;100599.84;;;25.10;52.82
48200;BME280;33990;44.602;10.976;2022-09-09T07:10:04;100594.41;;;25.02;53.50
48200;BME280;33990;44.602;10.976;2022-09-09T07:12:32;100593.25;;;24.96;54.21
48200;BME280;33990;44.602;10.976;2022-09-09T07:15:00;100593.41;;;24.95;54.68
48200;BME280;33990;44.602;10.976;2022-09-09T07:17:27;100595.63;;;24.91;55.13
48200;BME280;33990;44.602;10.976;2022-09-09T07:19:57;100586.13;;;24.95;55.19
48200;BME280;33990;44.602;10.976;2022-09-09T07:22:25;100599.34;;;24.98;55.89
48200;BME280;33990;44.602;10.976;2022-09-09T07:24:52;100597.34;;;24.92;56.69
48200;BME280;33990;44.602;10.976;2022-09-09T07:27:20;100598.34;;;24.91;57.37
48200;BME280;33990;44.602;10.976;2022-09-09T07:29:48;100606.84;;;24.88;57.54
48200;BME280;33990;44.602;10.976;2022-09-09T07:32:15;100603.75;;;24.91;57.82
48200;BME280;33990;44.602;10.976;2022-09-09T07:34:43;100610.50;;;24.95;59.13
48200;BME280;33990;44.602;10.976;2022-09-09T07:37:10;100610.50;;;24.95;59.33
48200;BME280;33990;44.602;10.976;2022-09-09T07:39:43;100604.78;;;24.90;59.90
48200;BME280;33990;44.602;10.976;2022-09-09T07:42:11;100604.97;;;24.88;60.20
48200;BME280;33990;44.602;10.976;2022-09-09T07:44:39;100608.50;;;24.89;60.74
48200;BME280;33990;44.602;10.976;2022-09-09T07:47:10;100609.03;;;24.84;60.56
48200;BME280;33990;44.602;10.976;2022-09-09T07:49:42;100606.47;;;24.83;61.01
48200;BME280;33990;44.602;10.976;2022-09-09T07:52:10;100614.78;;;24.81;61.37
48200;BME280;33990;44.602;10.976;2022-09-09T07:54:45;100611.59;;;24.78;61.55
48200;BME280;33990;44.602;10.976;2022-09-09T07:57:13;100613.97;;;24.73;61.63
48200;BME280;33990;44.602;10.976;2022-09-09T07:59:42;100612.94;;;24.74;61.92
48200;BME280;33990;44.602;10.976;2022-09-09T08:02:09;100613.63;;;24.76;61.34
48200;BME280;33990;44.602;10.976;2022-09-09T08:04:37;100618.69;;;24.79;60.86
48200;BME280;33990;44.602;10.976;2022-09-09T08:07:05;100623.09;;;24.80;60.66
48200;BME280;33990;44.602;10.976;2022-09-09T08:09:39;100614.78;;;24.81;61.26
48200;BME280;33990;44.602;10.976;2022-09-09T08:12:14;100621.06;;;24.82;62.29
48200;BME280;33990;44.602;10.976;2022-09-09T08:14:41;100630.19;;;24.81;62.53
48200;BME280;33990;44.602;10.976;2022-09-09T08:17:08;100621.38;;;24.79;62.55
48200;BME280;33990;44.602;10.976;2022-09-09T08:19:36;100619.53;;;24.79;62.45
48200;BME280;33990;44.602;10.976;2022-09-09T08:22:09;100617.50;;;24.81;62.81
48200;BME280;33990;44.602;10.976;2022-09-09T08:24:39;100620.03;;;24.83;63.01
48200;BME280;33990;44.602;10.976;2022-09-09T08:27:07;100614.78;;;24.81;63.03
48200;BME280;33990;44.602;10.976;2022-09-09T08:29:37;100618.34;;;24.82;63.41
48200;BME280;33990;44.602;10.976;2022-09-09T08:32:05;100619.03;;;24.84;63.33
48200;BME280;33990;44.602;10.976;2022-09-09T08:34:34;100619.03;;;24.84;63.41
48200;BME280;33990;44.602;10.976;2022-09-09T08:37:06;100625.28;;;24.84;63.39
48200;BME280;33990;44.602;10.976;2022-09-09T08:39:37;100623.41;;;24.85;63.02
48200;BME280;33990;44.602;10.976;2022-09-09T08:47:57;100614.59;;;24.83;63.13
48200;BME280;33990;44.602;10.976;2022-09-09T08:50:35;100622.72;;;24.83;63.10
48200;BME280;33990;44.602;10.976;2022-09-09T08:53:27;100610.22;;;24.82;63.27
48200;BME280;33990;44.602;10.976;2022-09-09T08:55:59;100620.22;;;24.81;63.15
48200;BME280;33990;44.602;10.976;2022-09-09T08:59:00;100619.38;;;24.81;63.38
48200;BME280;33990;44.602;10.976;2022-09-09T09:01:46;100624.59;;;24.82;63.47
48200;BME280;33990;44.602;10.976;2022-09-09T09:04:45;100618.19;;;24.83;63.28
48200;BME280;33990;44.602;10.976;2022-09-09T09:10:25;100624.75;;;24.89;63.38
48200;BME280;33990;44.602;10.976;2022-09-09T09:13:14;100621.88;;;24.90;63.23
48200;BME280;33990;44.602;10.976;2022-09-09T09:15:48;100620.88;;;24.91;63.28
48200;BME280;33990;44.602;10.976;2022-09-09T09:18:17;100619.84;;;24.92;63.02
48200;BME280;33990;44.602;10.976;2022-09-09T09:21:19;100623.22;;;24.95;62.66
48200;BME280;33990;44.602;10.976;2022-09-09T09:23:58;100620.34;;;24.96;62.15
48200;BME280;33990;44.602;10.976;2022-09-09T09:26:34;100619.13;;;24.99;61.45
48200;BME280;33990;44.602;10.976;2022-09-09T09:29:11;100616.44;;;24.99;61.44
48200;BME280;33990;44.602;10.976;2022-09-09T09:31:50;100615.44;;;25.00;60.92
48200;BME280;33990;44.602;10.976;2022-09-09T09:34:18;100618.97;;;25.00;59.39
48200;BME280;33990;44.602;10.976;2022-09-09T09:36:57;100617.13;;;25.01;58.50
48200;BME280;33990;44.602;10.976;2022-09-09T09:39:31;100624.03;;;25.03;58.73
48200;BME280;33990;44.602;10.976;2022-09-09T09:42:23;100618.59;;;25.03;58.33
48200;BME280;33990;44.602;10.976;2022-09-09T09:44:54;100621.16;;;25.05;57.90
48200;BME280;33990;44.602;10.976;2022-09-09T09:47:23;100619.09;;;25.07;57.78
48200;BME280;33990;44.602;10.976;2022-09-09T09:50:18;100619.94;;;25.07;57.70
48200;BME280;33990;44.602;10.976;2022-09-09T09:53:00;100616.09;;;25.10;57.55
48200;BME280;33990;44.602;10.976;2022-09-09T09:55:31;100614.91;;;25.12;57.15
48200;BME280;33990;44.602;10.976;2022-09-09T09:58:02;100614.72;;;25.14;57.49
48200;BME280;33990;44.602;10.976;2022-09-09T10:00:32;100608.13;;;25.17;57.66
48200;BME280;33990;44.602;10.976;2022-09-09T10:03:22;100608.78;;;25.19;56.72
48200;BME280;33990;44.602;10.976;2022-09-09T10:05:52;100612.31;;;25.19;55.09
48200;BME280;33990;44.602;10.976;2022-09-09T10:08:20;100606.75;;;25.21;54.36
48200;BME280;33990;44.602;10.976;2022-09-09T10:19:34;100604.53;;;25.24;51.55
48200;BME280;33990;44.602;10.976;2022-09-09T10:30:21;100603.81;;;25.30;53.22
48200;BME280;33990;44.602;10.976;2022-09-09T10:41:26;100590.56;;;25.35;53.85
48200;BME280;33990;44.602;10.976;2022-09-09T10:52:31;100580.72;;;25.43;53.36
48200;BME280;33990;44.602;10.976;2022-09-09T10:55:18;100579.69;;;25.44;53.28
48200;BME280;33990;44.602;10.976;2022-09-09T11:00:20;100579.19;;;25.48;54.11
48200;BME280;33990;44.602;10.976;2022-09-09T11:03:02;100572.88;;;25.48;53.90
48200;BME280;33990;44.602;10.976;2022-09-09T11:16:30;100554.88;;;25.55;53.61
48200;BME280;33990;44.602;10.976;2022-09-09T11:21:50;100553.69;;;25.57;53.72
48200;BME280;33990;44.602;10.976;2022-09-09T11:24:33;100556.22;;;25.59;53.48
48200;BME280;33990;44.602;10.976;2022-09-09T11:27:11;100556.22;;;25.59;53.56
48200;BME280;33990;44.602;10.976;2022-09-09T11:29:54;100560.44;;;25.61;53.64
48200;BME280;33990;44.602;10.976;2022-09-09T11:33:00;100553.16;;;25.62;53.29
48200;BME280;33990;44.602;10.976;2022-09-09T11:41:02;100560.56;;;25.68;52.86
48200;BME280;33990;44.602;10.976;2022-09-09T11:43:40;100548.69;;;25.69;52.58
48200;BME280;33990;44.602;10.976;2022-09-09T11:46:09;100552.06;;;25.71;52.11
48200;BME280;33990;44.602;10.976;2022-09-09T11:48:39;100549.00;;;25.74;51.85
48200;BME280;33990;44.602;10.976;2022-09-09T11:53:55;100553.06;;;25.78;51.33
48200;BME280;33990;44.602;10.976;2022-09-09T11:56:30;100547.44;;;25.80;51.57
48200;BME280;33990;44.602;10.976;2022-09-09T11:59:06;100542.69;;;25.82;51.91
48200;BME280;33990;44.602;10.976;2022-09-09T12:01:39;100546.25;;;25.82;51.58
48200;BME280;33990;44.602;10.976;2022-09-09T12:04:14;100544.38;;;25.83;51.18
48200;BME280;33990;44.602;10.976;2022-09-09T12:06:49;100544.03;;;25.86;50.32
48200;BME280;33990;44.602;10.976;2022-09-09T12:19:42;100560.59;;;25.91;50.05
48200;BME280;33990;44.602;10.976;2022-09-09T12:22:50;100546.66;;;25.94;49.72
48200;BME280;33990;44.602;10.976;2022-09-09T12:33:11;100554.44;;;25.97;52.73
48200;BME280;33990;44.602;10.976;2022-09-09T12:35:42;100549.88;;;25.98;52.61
48200;BME280;33990;44.602;10.976;2022-09-09T12:38:15;100551.75;;;25.97;53.20
48200;BME280;33990;44.602;10.976;2022-09-09T12:40:55;100553.41;;;25.98;54.35
48200;BME280;33990;44.602;10.976;2022-09-09T12:43:24;100543.41;;;25.99;54.41
48200;BME280;33990;44.602;10.976;2022-09-09T12:45:59;100537.13;;;25.98;55.87
48200;BME280;33990;44.602;10.976;2022-09-09T12:48:39;100544.25;;;25.99;55.96
48200;BME280;33990;44.602;10.976;2022-09-09T12:51:29;100549.66;;;25.99;55.54
48200;BME280;33990;44.602;10.976;2022-09-09T12:54:00;100543.22;;;26.00;55.51
48200;BME280;33990;44.602;10.976;2022-09-09T12:56:31;100542.22;;;26.01;55.71
48200;BME280;33990;44.602;10.976;2022-09-09T12:58:59;100542.00;;;26.03;55.51
48200;BME280;33990;44.602;10.976;2022-09-09T13:01:30;100536.59;;;26.03;55.66
48200;BME280;33990;44.602;10.976;2022-09-09T13:03:59;100527.63;;;26.02;55.64
48200;BME280;33990;44.602;10.976;2022-09-09T13:06:31;100526.78;;;26.02;55.31
48200;BME280;33990;44.602;10.976;2022-09-09T13:09:00;100529.50;;;26.02;55.36
48200;BME280;33990;44.602;10.976;2022-09-09T13:11:44;100533.03;;;26.02;55.31
48200;BME280;33990;44.602;10.976;2022-09-09T13:16:57;100532.00;;;26.03;54.85
48200;BME280;33990;44.602;10.976;2022-09-09T13:19:26;100526.56;;;26.03;54.20
48200;BME280;33990;44.602;10.976;2022-09-09T13:21:56;100530.13;;;26.04;54.09
48200;BME280;33990;44.602;10.976;2022-09-09T13:24:31;100536.38;;;26.04;54.54
48200;BME280;33990;44.602;10.976;2022-09-09T13:27:23;100530.31;;;26.02;54.54
48200;BME280;33990;44.602;10.976;2022-09-09T13:29:52;100530.31;;;26.02;54.65
48200;BME280;33990;44.602;10.976;2022-09-09T13:32:25;100532.19;;;26.02;54.32
48200;BME280;33990;44.602;10.976;2022-09-09T13:35:00;100538.47;;;26.02;54.57
48200;BME280;33990;44.602;10.976;2022-09-09T13:37:36;100528.44;;;26.03;54.50
48200;BME280;33990;44.602;10.976;2022-09-09T13:40:05;100528.44;;;26.03;54.57
48200;BME280;33990;44.602;10.976;2022-09-09T13:42:38;100530.31;;;26.02;54.62
48200;BME280;33990;44.602;10.976;2022-09-09T13:45:20;100531.34;;;26.01;54.45
48200;BME280;33990;44.602;10.976;2022-09-09T13:47:49;100520.50;;;26.01;54.65
48200;BME280;33990;44.602;10.976;2022-09-09T13:50:28;100521.34;;;26.02;54.57
48200;BME280;33990;44.602;10.976;2022-09-09T13:52:57;100523.22;;;26.01;54.71
48200;BME280;33990;44.602;10.976;2022-09-09T13:55:27;100528.66;;;26.01;54.88
48200;BME280;33990;44.602;10.976;2022-09-09T13:57:57;100526.78;;;26.02;54.84
48200;BME280;33990;44.602;10.976;2022-09-09T14:00:24;100524.22;;;26.00;54.95
48200;BME280;33990;44.602;10.976;2022-09-09T14:02:52;100517.78;;;26.01;54.87
48200;BME280;33990;44.602;10.976;2022-09-09T14:05:22;100516.94;;;26.01;54.89
48200;BME280;33990;44.602;10.976;2022-09-09T14:07:49;100516.94;;;26.01;55.16
48200;BME280;33990;44.602;10.976;2022-09-09T14:10:19;100516.09;;;26.00;54.89
48200;BME280;33990;44.602;10.976;2022-09-09T14:12:47;100508.78;;;26.01;54.94
48200;BME280;33990;44.602;10.976;2022-09-09T14:15:14;100509.66;;;26.01;54.98
48200;BME280;33990;44.602;10.976;2022-09-09T14:17:42;100504.22;;;26.01;55.08
48200;BME280;33990;44.602;10.976;2022-09-09T14:20:10;100504.22;;;26.01;55.31
48200;BME280;33990;44.602;10.976;2022-09-09T14:22:39;100498.81;;;26.01;55.21
48200;BME280;33990;44.602;10.976;2022-09-09T14:25:06;100502.34;;;26.02;55.20
48200;BME280;33990;44.602;10.976;2022-09-09T14:27:34;100512.38;;;26.01;55.15
48200;BME280;33990;44.602;10.976;2022-09-09T14:30:02;100507.59;;;26.03;55.22
48200;BME280;33990;44.602;10.976;2022-09-09T14:32:30;100504.22;;;26.01;55.11
48200;BME280;33990;44.602;10.976;2022-09-09T14:34:58;100502.16;;;26.03;55.22
48200;BME280;33990;44.602;10.976;2022-09-09T14:37:27;100505.91;;;26.02;55.41
48200;BME280;33990;44.602;10.976;2022-09-09T14:39:54;100515.09;;;26.01;55.23
48200;BME280;33990;44.602;10.976;2022-09-09T14:42:23;100526.56;;;26.03;55.22
48200;BME280;33990;44.602;10.976;2022-09-09T14:44:50;100529.28;;;26.03;55.19
48200;BME280;33990;44.602;10.976;2022-09-09T14:47:17;100538.25;;;26.04;55.32
48200;BME280;33990;44.602;10.976;2022-09-09T14:49:45;100535.56;;;26.04;55.34
48200;BME280;33990;44.602;10.976;2022-09-09T14:52:13;100528.25;;;26.04;55.38
48200;BME280;33990;44.602;10.976;2022-09-09T14:54:40;100530.97;;;26.04;55.34
48200;BME280;33990;44.602;10.976;2022-09-09T14:57:08;100524.53;;;26.05;55.18
48200;BME280;33990;44.602;10.976;2022-09-09T14:59:35;100527.25;;;26.05;55.45
48200;BME280;33990;44.602;10.976;2022-09-09T15:02:02;100523.66;;;26.05;55.39
48200;BME280;33990;44.602;10.976;2022-09-09T15:04:31;100527.25;;;26.05;55.26
48200;BME280;33990;44.602;10.976;2022-09-09T15:06:58;100539.78;;;26.06;55.40
48200;BME280;33990;44.602;10.976;2022-09-09T15:09:26;100545.22;;;26.06;55.40
48200;BME280;33990;44.602;10.976;2022-09-09T15:11:53;100539.59;;;26.08;55.49
48200;BME280;33990;44.602;10.976;2022-09-09T15:14:20;100537.06;;;26.06;55.42